Time;durP1;ratioP1;P1;durP2;ratioP2;P2;SDS_P1;SDS_P2;PMS_P1;PMS_P2;Temp;Humidity;BMP_temperature;BMP_pressure;BME280_temperature;BME280_humidity;BME280_pressure;Samples;Min_cycle;Max_cycle;Signal;HPM_P1;HPM_P2
2023/04/05 00:01:13;;;;;;;25.20;14.23;;;1.50;99.90;;;;;;4857354;29;20231;-60
2023/04/05 00:03:42;;;;;;;25.13;15.07;;;1.50;99.90;;;;;;4853885;29;20230;-60
2023/04/05 00:06:15;;;;;;;26.70;15.33;;;1.40;99.90;;;;;;4844256;29;20293;-60
2023/04/05 00:08:49;;;;;;;24.10;14.60;;;1.40;99.90;;;;;;4853164;29;20257;-60
2023/04/05 00:11:17;;;;;;;23.87;14.10;;;1.30;99.90;;;;;;4847358;29;20595;-60
2023/04/05 00:13:46;;;;;;;25.13;13.87;;;1.30;99.90;;;;;;4850303;29;20536;-60
2023/04/05 00:16:15;;;;;;;27.17;15.87;;;1.30;99.90;;;;;;4852466;29;20199;-60
2023/04/05 00:18:48;;;;;;;23.57;14.70;;;1.30;99.90;;;;;;4854990;29;20577;-60
2023/04/05 00:21:20;;;;;;;26.30;14.67;;;1.30;99.90;;;;;;4851859;29;20587;-60
2023/04/05 00:23:50;;;;;;;22.73;14.47;;;1.20;99.90;;;;;;4849586;29;20237;-59
2023/04/05 00:26:19;;;;;;;24.40;15.03;;;1.20;99.90;;;;;;4850771;29;20223;-60
2023/04/05 00:28:47;;;;;;;29.07;16.20;;;1.20;99.90;;;;;;4852230;29;20191;-59
2023/04/05 00:31:16;;;;;;;25.83;14.80;;;1.20;99.90;;;;;;4850727;29;20216;-60
2023/04/05 00:33:45;;;;;;;30.00;15.30;;;1.10;99.90;;;;;;4853202;29;20747;-59
2023/04/05 00:36:14;;;;;;;26.80;13.83;;;1.10;99.90;;;;;;4851763;29;20234;-60
2023/04/05 00:38:45;;;;;;;23.77;14.70;;;1.00;99.90;;;;;;4854575;29;20236;-59
2023/04/05 00:41:14;;;;;;;25.77;14.27;;;1.00;99.90;;;;;;4855269;29;20326;-60
2023/04/05 00:43:42;;;;;;;29.50;14.63;;;1.00;99.90;;;;;;4856571;29;20207;-59
2023/04/05 00:46:10;;;;;;;25.47;14.17;;;0.90;99.90;;;;;;4856771;29;20196;-60
2023/04/05 00:48:39;;;;;;;25.90;14.43;;;0.90;99.90;;;;;;4856202;29;20215;-59
2023/04/05 00:51:10;;;;;;;26.17;14.50;;;0.90;99.90;;;;;;4855980;29;20243;-60
2023/04/05 00:53:39;;;;;;;24.03;14.13;;;0.90;99.90;;;;;;4855661;29;20564;-60
2023/04/05 00:56:12;;;;;;;32.83;15.60;;;0.80;99.90;;;;;;4858825;29;20620;-60
2023/04/05 00:58:41;;;;;;;27.20;15.23;;;0.80;99.90;;;;;;4852098;29;20639;-60
2023/04/05 01:01:16;;;;;;;27.33;14.90;;;0.80;99.90;;;;;;4856030;29;20236;-60
2023/04/05 01:03:51;;;;;;;25.80;14.53;;;0.70;99.90;;;;;;4851965;29;20282;-60
2023/04/05 01:06:28;;;;;;;27.60;15.10;;;0.70;99.90;;;;;;4849560;29;20219;-60
2023/04/05 01:09:05;;;;;;;26.23;14.50;;;0.60;99.90;;;;;;4857060;29;20218;-60
2023/04/05 01:11:37;;;;;;;24.73;15.07;;;0.60;99.90;;;;;;4852078;29;20283;-60
2023/04/05 01:14:06;;;;;;;28.27;15.70;;;0.60;99.90;;;;;;4857147;29;20222;-59
2023/04/05 01:16:35;;;;;;;26.33;15.63;;;0.60;99.90;;;;;;4856690;29;20256;-60
2023/04/05 01:19:03;;;;;;;29.87;14.20;;;0.60;99.90;;;;;;4856022;29;20204;-60
2023/04/05 01:22:04;;;;;;;27.67;15.23;;;0.60;99.90;;;;;;4853713;29;20299;-60
2023/04/05 01:24:45;;;;;;;30.70;16.57;;;0.50;99.90;;;;;;4855050;29;20226;-60
2023/04/05 01:27:19;;;;;;;26.40;15.17;;;0.50;99.90;;;;;;4855336;29;20246;-60
2023/04/05 01:29:53;;;;;;;32.83;16.10;;;0.40;99.90;;;;;;4850117;29;20231;-61
2023/04/05 01:32:39;;;;;;;27.33;14.40;;;0.40;99.90;;;;;;4851524;29;20227;-59
2023/04/05 01:35:16;;;;;;;28.83;15.40;;;0.40;99.90;;;;;;4851013;29;20237;-60
2023/04/05 01:37:48;;;;;;;31.70;15.97;;;0.40;99.90;;;;;;4856166;29;20226;-60
2023/04/05 01:40:17;;;;;;;31.93;16.03;;;0.40;99.90;;;;;;4857816;29;20521;-61
2023/04/05 01:42:46;;;;;;;26.40;16.00;;;0.30;99.90;;;;;;4851802;29;20219;-60
2023/04/05 01:45:15;;;;;;;30.43;16.00;;;0.30;99.90;;;;;;4852193;29;20227;-60
2023/04/05 01:47:43;;;;;;;33.13;17.00;;;0.20;99.90;;;;;;4851358;29;20247;-60
2023/04/05 01:50:12;;;;;;;30.33;16.93;;;0.20;99.90;;;;;;4852509;29;20235;-60
2023/04/05 01:52:40;;;;;;;33.17;17.93;;;0.20;99.90;;;;;;4854217;29;20209;-60
2023/04/05 01:55:08;;;;;;;31.03;17.40;;;0.20;99.90;;;;;;4861502;29;20199;-60
2023/04/05 01:57:37;;;;;;;32.97;17.97;;;0.20;99.90;;;;;;4858146;29;20283;-60
2023/04/05 02:00:07;;;;;;;31.57;17.03;;;0.20;99.90;;;;;;4854669;29;20235;-60
2023/04/05 02:02:36;;;;;;;36.07;18.00;;;0.20;99.90;;;;;;4855329;29;20227;-59
2023/04/05 02:05:05;;;;;;;34.23;17.20;;;0.20;99.90;;;;;;4858443;29;20231;-60
2023/04/05 02:07:33;;;;;;;35.73;17.87;;;0.20;99.90;;;;;;4855624;29;20203;-59
2023/04/05 02:10:02;;;;;;;32.47;17.13;;;0.10;99.90;;;;;;4848786;29;20212;-60
2023/04/05 02:12:30;;;;;;;36.67;18.33;;;0.10;99.90;;;;;;4850562;29;20258;-60
2023/04/05 02:14:58;;;;;;;37.30;19.53;;;0.10;99.90;;;;;;4855815;29;20222;-60
2023/04/05 02:17:32;;;;;;;35.27;18.17;;;0.10;99.90;;;;;;4857016;29;20283;-60
2023/04/05 02:20:09;;;;;;;36.37;18.40;;;0.10;99.90;;;;;;4859081;29;20792;-59
2023/04/05 02:22:38;;;;;;;40.47;20.00;;;0.20;99.90;;;;;;4852859;29;20234;-60
2023/04/05 02:25:08;;;;;;;36.80;18.73;;;0.20;99.90;;;;;;4850981;29;20206;-60
2023/04/05 02:27:37;;;;;;;36.83;19.70;;;0.20;99.90;;;;;;4856824;29;20224;-60
2023/04/05 02:30:06;;;;;;;33.43;18.43;;;0.20;99.90;;;;;;4846017;29;20763;-60
2023/04/05 02:32:35;;;;;;;35.13;18.60;;;0.20;99.90;;;;;;4854969;29;20234;-60
2023/04/05 02:35:05;;;;;;;33.90;17.97;;;0.10;99.90;;;;;;4856757;29;20266;-60
2023/04/05 02:37:33;;;;;;;32.57;18.60;;;0.20;99.90;;;;;;4854340;29;20215;-58
2023/04/05 02:40:03;;;;;;;31.70;16.77;;;0.10;99.90;;;;;;4846627;29;20242;-60
2023/04/05 02:42:31;;;;;;;34.53;18.47;;;0.10;99.90;;;;;;4857517;29;20567;-60
2023/04/05 02:45:00;;;;;;;35.83;19.07;;;0.10;99.90;;;;;;4860669;29;20598;-60
2023/04/05 02:47:28;;;;;;;34.10;18.73;;;0.00;99.90;;;;;;4854559;29;20752;-60
2023/04/05 02:49:59;;;;;;;32.63;17.73;;;0.00;99.90;;;;;;4846944;29;20232;-60
2023/04/05 02:52:31;;;;;;;31.93;18.57;;;-0.10;99.90;;;;;;4853817;29;20897;-60
2023/04/05 02:54:59;;;;;;;37.07;18.73;;;-0.10;99.90;;;;;;4858661;29;20230;-60
2023/04/05 02:57:27;;;;;;;40.57;19.43;;;-0.10;99.90;;;;;;4852404;29;20223;-60
2023/04/05 02:59:55;;;;;;;37.73;19.83;;;-0.20;99.90;;;;;;4853087;29;20258;-60
2023/04/05 03:02:24;;;;;;;39.87;20.30;;;-0.20;99.90;;;;;;4854947;29;20284;-60
2023/04/05 03:04:53;;;;;;;41.03;19.97;;;-0.30;99.90;;;;;;4846712;29;20200;-60
2023/04/05 03:07:24;;;;;;;38.27;19.50;;;-0.30;99.90;;;;;;4856573;29;20196;-60
2023/04/05 03:09:54;;;;;;;39.00;20.53;;;-0.30;99.90;;;;;;4850468;29;20224;-60
2023/04/05 03:12:22;;;;;;;41.93;20.83;;;-0.40;99.90;;;;;;4849744;29;20224;-60
2023/04/05 03:14:50;;;;;;;41.30;20.17;;;-0.40;99.90;;;;;;4857143;29;20283;-60
2023/04/05 03:17:19;;;;;;;48.27;20.87;;;-0.40;99.90;;;;;;4851468;29;20304;-60
2023/04/05 03:19:47;;;;;;;36.93;19.83;;;-0.40;99.90;;;;;;4854303;29;20317;-60
2023/04/05 03:22:15;;;;;;;42.33;21.67;;;-0.40;99.90;;;;;;4850376;29;20276;-60
2023/04/05 03:24:44;;;;;;;45.20;21.37;;;-0.40;99.90;;;;;;4852369;29;20251;-60
2023/04/05 03:27:13;;;;;;;41.80;21.30;;;-0.40;99.90;;;;;;4851496;29;20231;-60
2023/04/05 03:29:42;;;;;;;45.83;22.03;;;-0.40;99.90;;;;;;4851251;29;20231;-60
2023/04/05 03:32:10;;;;;;;41.13;21.57;;;-0.40;99.90;;;;;;4850690;29;20250;-60
2023/04/05 03:34:38;;;;;;;41.93;21.40;;;-0.40;99.90;;;;;;4854699;29;20199;-60
2023/04/05 03:37:07;;;;;;;38.93;21.13;;;-0.40;99.90;;;;;;4852598;29;20689;-60
2023/04/05 03:39:35;;;;;;;43.37;21.93;;;-0.50;99.90;;;;;;4850724;29;20255;-60
2023/04/05 03:42:03;;;;;;;41.83;21.83;;;-0.50;99.90;;;;;;4851625;29;20648;-60
2023/04/05 03:44:33;;;;;;;47.37;21.77;;;-0.50;99.90;;;;;;4849757;29;20975;-60
2023/04/05 03:47:01;;;;;;;39.13;21.37;;;-0.50;99.90;;;;;;4854230;29;20237;-60
2023/04/05 03:49:29;;;;;;;45.00;22.87;;;-0.60;99.90;;;;;;4839807;29;20216;-60
2023/04/05 03:51:58;;;;;;;45.53;22.80;;;-0.60;99.90;;;;;;4854604;29;20281;-60
2023/04/05 03:54:26;;;;;;;44.53;21.60;;;-0.60;99.90;;;;;;4851665;29;20620;-60
2023/04/05 03:56:55;;;;;;;47.20;22.63;;;-0.60;99.90;;;;;;4854421;29;20904;-60
2023/04/05 03:59:23;;;;;;;44.30;21.30;;;-0.60;99.90;;;;;;4850200;29;20234;-60
2023/04/05 04:01:53;;;;;;;46.77;22.73;;;-0.70;99.90;;;;;;4852650;29;20192;-60
2023/04/05 04:04:22;;;;;;;43.27;22.33;;;-0.70;99.90;;;;;;4854840;29;20727;-60
2023/04/05 04:06:50;;;;;;;41.47;20.57;;;-0.70;99.90;;;;;;4850219;29;20283;-60
2023/04/05 04:09:18;;;;;;;41.77;22.23;;;-0.70;99.90;;;;;;4854538;29;20269;-60
2023/04/05 04:11:46;;;;;;;40.20;20.93;;;-0.70;99.90;;;;;;4848862;29;20223;-60
2023/04/05 04:14:14;;;;;;;42.53;20.20;;;-0.70;99.90;;;;;;4854455;29;20303;-60
2023/04/05 04:16:43;;;;;;;38.07;20.87;;;-0.70;99.90;;;;;;4857475;29;20770;-59
2023/04/05 04:19:13;;;;;;;41.37;20.70;;;-0.70;99.90;;;;;;4855332;29;20203;-60
2023/04/05 04:21:50;;;;;;;46.43;21.17;;;-0.80;99.90;;;;;;4840371;29;20640;-60
2023/04/05 04:24:19;;;;;;;36.70;19.80;;;-0.80;99.90;;;;;;4853710;29;20291;-59
2023/04/05 04:26:48;;;;;;;35.73;20.37;;;-0.80;99.90;;;;;;4855321;29;20223;-60
2023/04/05 04:29:16;;;;;;;38.00;19.57;;;-0.80;99.90;;;;;;4855136;29;20264;-60
2023/04/05 04:31:47;;;;;;;38.30;20.10;;;-0.80;99.90;;;;;;4853696;29;20196;-60
2023/04/05 04:34:17;;;;;;;34.80;18.83;;;-0.80;99.90;;;;;;4850726;29;20216;-60
2023/04/05 04:36:47;;;;;;;34.20;17.47;;;-0.90;99.90;;;;;;4851640;29;20330;-60
2023/04/05 04:39:15;;;;;;;36.10;19.60;;;-0.90;99.90;;;;;;4851487;29;20228;-60
2023/04/05 04:41:45;;;;;;;39.60;19.80;;;-0.80;99.90;;;;;;4859333;29;20219;-60
2023/04/05 04:44:14;;;;;;;41.43;20.70;;;-0.90;99.90;;;;;;4835274;29;20219;-60
2023/04/05 04:46:42;;;;;;;39.37;20.57;;;-0.90;99.90;;;;;;4855126;29;20220;-60
2023/04/05 04:49:12;;;;;;;36.23;19.97;;;-0.90;99.90;;;;;;4858406;29;20715;-59
2023/04/05 04:51:42;;;;;;;40.63;19.70;;;-0.90;99.90;;;;;;4853519;29;20232;-60
2023/04/05 04:54:11;;;;;;;40.23;19.80;;;-0.90;99.90;;;;;;4856023;29;20228;-60
2023/04/05 04:56:39;;;;;;;38.63;19.07;;;-1.00;99.90;;;;;;4857348;29;20238;-60
2023/04/05 04:59:08;;;;;;;35.83;19.87;;;-1.00;99.90;;;;;;4859669;29;20279;-60
2023/04/05 05:01:39;;;;;;;36.53;20.10;;;-1.00;99.90;;;;;;4854341;29;20251;-60
2023/04/05 05:04:07;;;;;;;37.93;19.67;;;-1.00;99.90;;;;;;4855341;29;20635;-60
2023/04/05 05:06:36;;;;;;;40.53;21.50;;;-1.00;99.90;;;;;;4854384;29;20705;-59
2023/04/05 05:09:06;;;;;;;37.37;19.57;;;-1.00;99.90;;;;;;4855310;29;20682;-59
2023/04/05 05:11:34;;;;;;;45.30;21.40;;;-0.90;99.90;;;;;;4840027;29;20231;-60
2023/04/05 05:14:02;;;;;;;43.53;21.53;;;-0.90;99.90;;;;;;4859432;29;20287;-60
2023/04/05 05:16:30;;;;;;;46.90;22.23;;;-0.90;99.90;;;;;;4855947;29;20708;-60
2023/04/05 05:18:59;;;;;;;42.00;19.97;;;-0.90;99.90;;;;;;4856610;29;20238;-59
2023/04/05 05:21:27;;;;;;;39.57;20.93;;;-0.90;99.90;;;;;;4854854;29;20372;-60
2023/04/05 05:23:55;;;;;;;41.23;20.87;;;-1.00;99.90;;;;;;4853182;29;20283;-59
2023/04/05 05:26:25;;;;;;;48.20;22.93;;;-0.90;99.90;;;;;;4845359;29;20651;-60
2023/04/05 05:28:53;;;;;;;44.83;22.27;;;-0.80;99.90;;;;;;4857230;29;20242;-60
2023/04/05 05:31:21;;;;;;;47.07;21.83;;;-0.80;99.90;;;;;;4856455;29;20619;-59
2023/04/05 05:33:50;;;;;;;50.00;21.60;;;-0.70;99.90;;;;;;4853202;29;20230;-60
2023/04/05 05:36:19;;;;;;;49.63;22.40;;;-0.60;99.90;;;;;;4859787;29;20231;-60
2023/04/05 05:38:47;;;;;;;41.87;21.63;;;-0.60;99.90;;;;;;4854704;29;20223;-60
2023/04/05 05:41:16;;;;;;;42.60;22.70;;;-0.50;99.90;;;;;;4860960;29;20250;-60
2023/04/05 05:43:45;;;;;;;57.07;23.03;;;-0.40;99.90;;;;;;4838774;29;20617;-59
2023/04/05 05:46:14;;;;;;;57.47;24.87;;;-0.40;99.90;;;;;;4854717;29;20203;-60
2023/04/05 05:48:42;;;;;;;50.37;24.07;;;-0.40;99.90;;;;;;4855009;29;20237;-60
2023/04/05 05:51:10;;;;;;;49.73;22.83;;;-0.20;99.90;;;;;;4854513;29;20262;-60
2023/04/05 05:53:39;;;;;;;51.73;23.27;;;0.00;99.90;;;;;;4856409;29;20260;-60
2023/04/05 05:56:08;;;;;;;50.37;22.60;;;0.10;99.90;;;;;;4852826;29;20245;-60
2023/04/05 05:58:36;;;;;;;44.67;23.03;;;0.20;99.90;;;;;;4853512;29;20232;-59
2023/04/05 06:01:06;;;;;;;45.70;21.93;;;0.30;99.90;;;;;;4859699;29;20296;-60
2023/04/05 06:03:34;;;;;;;51.33;22.77;;;0.40;99.90;;;;;;4835441;29;20215;-60
2023/04/05 06:06:04;;;;;;;39.37;20.60;;;0.50;99.90;;;;;;4850849;29;20280;-61
2023/04/05 06:08:33;;;;;;;49.63;22.07;;;0.60;99.90;;;;;;4854552;29;20307;-60
2023/04/05 06:11:01;;;;;;;49.57;22.03;;;0.80;99.90;;;;;;4852436;29;20275;-60
2023/04/05 06:13:29;;;;;;;42.17;21.87;;;1.00;99.90;;;;;;4837616;29;20212;-60
2023/04/05 06:16:00;;;;;;;42.57;20.97;;;1.10;99.90;;;;;;4854226;29;20243;-60
2023/04/05 06:18:30;;;;;;;38.33;20.97;;;1.30;99.90;;;;;;4856960;29;20230;-60
2023/04/05 06:20:58;;;;;;;38.50;21.13;;;1.50;99.90;;;;;;4855129;29;20287;-60
2023/04/05 06:23:26;;;;;;;40.97;22.27;;;1.70;99.90;;;;;;4859402;29;20644;-60
2023/04/05 06:25:56;;;;;;;45.13;23.67;;;1.90;99.90;;;;;;4853026;29;20235;-61
2023/04/05 06:28:24;;;;;;;39.47;21.83;;;2.20;99.90;;;;;;4859761;29;20255;-60
2023/04/05 06:30:54;;;;;;;44.70;20.37;;;2.50;99.90;;;;;;4856386;29;20219;-60
2023/04/05 06:33:22;;;;;;;38.23;20.10;;;2.90;99.90;;;;;;4853966;29;20235;-61
2023/04/05 06:35:52;;;;;;;40.33;19.73;;;3.50;99.90;;;;;;4839320;29;20299;-61
2023/04/05 06:38:20;;;;;;;30.47;19.20;;;4.10;99.90;;;;;;4851844;29;20611;-61
2023/04/05 06:40:48;;;;;;;35.07;19.03;;;4.70;99.90;;;;;;4854898;29;20200;-61
2023/04/05 06:43:16;;;;;;;32.97;18.83;;;5.20;99.90;;;;;;4853555;29;20613;-61
2023/04/05 06:45:45;;;;;;;34.47;17.83;;;5.70;99.90;;;;;;4855703;29;20219;-61
2023/04/05 06:48:13;;;;;;;39.20;21.03;;;6.20;99.90;;;;;;4851362;29;20227;-61
2023/04/05 06:50:41;;;;;;;32.07;18.83;;;6.50;99.90;;;;;;4859484;29;20220;-61
2023/04/05 06:53:13;;;;;;;35.23;19.70;;;6.60;99.90;;;;;;4857365;29;20322;-61
2023/04/05 06:55:42;;;;;;;29.83;18.37;;;7.00;99.90;;;;;;4846768;29;20663;-61
2023/04/05 06:58:10;;;;;;;35.07;19.30;;;7.40;99.90;;;;;;4857130;29;20298;-61
2023/04/05 07:00:38;;;;;;;28.67;17.77;;;7.80;99.90;;;;;;4853225;29;20315;-61
2023/04/05 07:03:08;;;;;;;33.93;18.87;;;8.20;99.90;;;;;;4850089;29;20227;-61
2023/04/05 07:05:36;;;;;;;31.67;17.93;;;8.50;99.90;;;;;;4856043;29;20593;-61
2023/04/05 07:08:04;;;;;;;25.47;16.97;;;8.90;99.90;;;;;;4858103;29;20245;-61
2023/04/05 07:10:34;;;;;;;27.60;17.80;;;9.10;99.90;;;;;;4850851;29;20208;-61
2023/04/05 07:13:02;;;;;;;29.63;16.87;;;9.50;99.90;;;;;;4854617;29;20267;-61
2023/04/05 07:15:32;;;;;;;27.93;17.17;;;10.00;99.90;;;;;;4850105;29;20847;-61
2023/04/05 07:18:00;;;;;;;30.67;16.90;;;10.40;99.90;;;;;;4852291;29;20710;-62
2023/04/05 07:20:29;;;;;;;26.97;16.60;;;10.70;99.90;;;;;;4856786;29;20693;-61
2023/04/05 07:22:57;;;;;;;29.33;16.70;;;10.90;99.90;;;;;;4857742;29;20239;-62
2023/04/05 07:25:26;;;;;;;29.93;17.40;;;11.30;99.90;;;;;;4855094;29;20199;-62
2023/04/05 07:27:56;;;;;;;24.27;16.43;;;11.40;99.90;;;;;;4853715;29;20223;-62
2023/04/05 07:30:25;;;;;;;23.37;16.57;;;11.60;99.90;;;;;;4857526;29;20728;-62
2023/04/05 07:32:54;;;;;;;25.37;16.90;;;11.80;99.90;;;;;;4857566;29;20275;-61
2023/04/05 07:35:22;;;;;;;22.33;15.80;;;12.20;99.90;;;;;;4855400;29;20234;-62
2023/04/05 07:37:51;;;;;;;25.10;15.87;;;12.60;99.90;;;;;;4849418;29;20225;-62
2023/04/05 07:40:19;;;;;;;22.43;15.80;;;12.80;99.90;;;;;;4854139;29;20203;-62
2023/04/05 07:42:47;;;;;;;21.60;14.77;;;12.90;99.90;;;;;;4849808;29;20283;-62
2023/04/05 07:45:17;;;;;;;23.03;14.47;;;12.80;99.90;;;;;;4852294;29;20219;-62
2023/04/05 07:47:46;;;;;;;20.93;13.97;;;12.80;99.90;;;;;;4855133;29;20285;-62
2023/04/05 07:50:14;;;;;;;22.60;13.67;;;12.70;99.90;;;;;;4855463;29;20695;-62
2023/04/05 07:52:43;;;;;;;20.50;13.80;;;12.60;99.90;;;;;;4848438;29;20219;-62
2023/04/05 07:55:11;;;;;;;18.57;12.40;;;12.90;99.90;;;;;;4857750;29;20291;-62
2023/04/05 07:57:39;;;;;;;18.83;12.43;;;13.10;99.90;;;;;;4856368;29;20224;-60
2023/04/05 08:00:11;;;;;;;18.30;11.93;;;13.30;99.90;;;;;;4856877;29;20295;-60
2023/04/05 08:02:41;;;;;;;16.90;11.63;;;13.50;99.90;;;;;;4856920;29;20848;-62
2023/04/05 08:05:10;;;;;;;21.40;12.47;;;13.70;99.90;;;;;;4855983;29;20224;-62
2023/04/05 08:07:38;;;;;;;18.23;10.63;;;14.10;99.90;;;;;;4850845;29;20204;-63
2023/04/05 08:10:07;;;;;;;16.90;11.03;;;14.60;99.90;;;;;;4841539;29;20214;-63
2023/04/05 08:12:35;;;;;;;14.87;11.33;;;14.60;99.90;;;;;;4854525;29;20713;-63
2023/04/05 08:15:07;;;;;;;15.50;10.07;;;14.90;99.90;;;;;;4853074;29;20220;-63
2023/04/05 08:17:35;;;;;;;14.17;9.67;;;15.00;99.90;;;;;;4853349;29;20234;-63
2023/04/05 08:20:06;;;;;;;14.30;9.80;;;15.30;99.90;;;;;;4857405;29;20227;-63
2023/04/05 08:22:34;;;;;;;13.63;10.30;;;15.60;99.90;;;;;;4857385;29;20551;-63
2023/04/05 08:25:03;;;;;;;12.10;8.77;;;15.80;99.90;;;;;;4855619;29;20200;-63
2023/04/05 08:27:31;;;;;;;13.10;9.57;;;16.00;99.90;;;;;;4850127;29;20227;-63
2023/04/05 08:29:59;;;;;;;13.53;9.07;;;16.30;99.90;;;;;;4853283;29;20247;-63
2023/04/05 08:32:27;;;;;;;14.03;9.50;;;16.40;99.90;;;;;;4856824;29;20223;-63
2023/04/05 08:34:56;;;;;;;11.47;9.13;;;16.40;99.90;;;;;;4856215;29;20235;-61
2023/04/05 08:37:25;;;;;;;12.93;8.93;;;16.80;99.90;;;;;;4853298;29;20256;-61
2023/04/05 08:39:54;;;;;;;15.00;9.17;;;16.90;98.20;;;;;;4855549;29;20620;-62
2023/04/05 08:42:29;;;;;;;11.60;9.17;;;17.10;99.90;;;;;;4853025;29;20513;-61
2023/04/05 08:44:59;;;;;;;12.63;9.10;;;17.60;99.90;;;;;;4857301;29;20285;-61
2023/04/05 08:47:28;;;;;;;11.97;8.63;;;17.90;99.90;;;;;;4852716;29;20711;-62
2023/04/05 08:49:56;;;;;;;9.93;8.43;;;18.40;98.80;;;;;;4851276;29;20232;-62
2023/04/05 08:52:27;;;;;;;9.43;8.07;;;18.50;98.70;;;;;;4858074;29;20204;-61
2023/04/05 08:54:55;;;;;;;10.77;8.33;;;18.50;95.90;;;;;;4846125;29;20250;-61
2023/04/05 08:57:26;;;;;;;13.73;7.97;;;18.50;93.80;;;;;;4838347;29;20687;-62
2023/04/05 08:59:57;;;;;;;9.23;8.17;;;18.00;92.60;;;;;;4855910;29;20274;-61
2023/04/05 09:02:26;;;;;;;12.00;8.80;;;17.90;91.50;;;;;;4855348;29;20576;-61
2023/04/05 09:04:57;;;;;;;10.43;8.17;;;17.90;93.60;;;;;;4855253;29;20606;-61
2023/04/05 09:07:31;;;;;;;11.77;8.37;;;17.90;91.50;;;;;;4857594;29;20275;-62
2023/04/05 09:10:01;;;;;;;10.60;8.13;;;17.80;92.40;;;;;;4856765;29;20231;-62
2023/04/05 09:12:30;;;;;;;12.13;7.87;;;18.10;92.00;;;;;;4859412;29;20302;-61
2023/04/05 09:15:01;;;;;;;8.07;7.20;;;18.00;90.50;;;;;;4851348;29;20231;-61
2023/04/05 09:17:31;;;;;;;9.10;7.23;;;18.20;91.20;;;;;;4852594;29;20270;-62
2023/04/05 09:19:59;;;;;;;9.07;7.17;;;18.30;91.40;;;;;;4856141;29;20981;-62
2023/04/05 09:22:29;;;;;;;10.53;7.17;;;18.10;88.90;;;;;;4860797;29;20207;-62
2023/04/05 09:24:57;;;;;;;10.07;7.70;;;17.90;90.00;;;;;;4849454;29;20292;-61
2023/04/05 09:27:25;;;;;;;10.83;8.03;;;17.90;91.10;;;;;;4855003;29;20690;-62
2023/04/05 09:29:55;;;;;;;11.40;8.53;;;18.80;94.10;;;;;;4852976;29;20228;-61
2023/04/05 09:32:28;;;;;;;11.07;7.50;;;19.30;88.30;;;;;;4856844;29;20303;-62
2023/04/05 09:35:02;;;;;;;8.73;7.23;;;19.10;88.50;;;;;;4856105;29;20219;-62
2023/04/05 09:37:32;;;;;;;10.30;7.80;;;18.90;86.20;;;;;;4855815;29;20199;-61
2023/04/05 09:40:05;;;;;;;11.23;7.77;;;18.60;85.50;;;;;;4855253;29;20739;-61
2023/04/05 09:42:44;;;;;;;11.17;7.50;;;18.70;85.70;;;;;;4855687;29;20279;-61
2023/04/05 09:45:13;;;;;;;9.63;8.07;;;18.70;86.50;;;;;;4856326;29;20227;-62
2023/04/05 09:47:41;;;;;;;9.50;7.60;;;18.80;89.00;;;;;;4850153;29;20300;-62
2023/04/05 09:50:19;;;;;;;11.10;8.17;;;18.80;84.80;;;;;;4856739;29;20643;-62
2023/04/05 09:52:51;;;;;;;10.57;7.70;;;19.20;88.30;;;;;;4854876;29;20192;-62
2023/04/05 09:55:27;;;;;;;10.63;8.10;;;19.30;83.70;;;;;;4859244;29;20698;-62
2023/04/05 09:57:56;;;;;;;12.70;8.27;;;19.00;83.30;;;;;;4854908;29;20230;-62
2023/04/05 10:00:24;;;;;;;10.23;8.33;;;18.80;84.30;;;;;;4854261;29;20232;-62
2023/04/05 10:02:59;;;;;;;9.75;7.55;;;19.80;86.60;;;;;;4857297;29;20227;-61
2023/04/05 10:05:28;;;;;;;11.32;8.25;;;20.40;84.90;;;;;;4855081;29;20260;-62
2023/04/05 10:07:59;;;;;;;10.38;8.25;;;20.90;83.00;;;;;;4840231;29;20245;-62
2023/04/05 10:10:27;;;;;;;11.52;8.98;;;21.10;80.80;;;;;;4852928;29;20258;-61
2023/04/05 10:12:56;;;;;;;10.27;8.10;;;20.50;79.80;;;;;;4856983;29;20281;-61
2023/04/05 10:15:26;;;;;;;9.38;8.30;;;20.20;79.90;;;;;;4851370;29;20255;-62
2023/04/05 10:18:03;;;;;;;10.27;8.40;;;20.00;84.30;;;;;;4855312;29;20242;-62
2023/04/05 10:20:36;;;;;;;9.27;8.23;;;20.60;80.90;;;;;;4857025;29;20231;-61
2023/04/05 10:23:09;;;;;;;12.65;8.57;;;20.80;80.50;;;;;;4853767;29;20763;-61
2023/04/05 10:25:48;;;;;;;11.75;8.40;;;20.70;77.10;;;;;;4856335;29;20251;-61
2023/04/05 10:28:26;;;;;;;13.70;8.45;;;20.10;74.40;;;;;;4852426;29;20196;-62
2023/04/05 10:31:08;;;;;;;15.80;9.02;;;20.30;83.70;;;;;;4849881;29;20258;-61
2023/04/05 10:33:40;;;;;;;10.98;8.55;;;20.50;78.90;;;;;;4854093;29;20225;-62
2023/04/05 10:36:18;;;;;;;12.00;8.68;;;21.00;81.00;;;;;;4858100;29;20284;-61
2023/04/05 10:39:00;;;;;;;10.43;9.02;;;21.50;80.30;;;;;;4851586;29;20245;-62
2023/04/05 10:41:32;;;;;;;10.20;8.50;;;21.60;77.00;;;;;;4854801;29;20244;-62
2023/04/05 10:44:03;;;;;;;14.15;8.95;;;21.20;76.60;;;;;;4858739;29;20238;-62
2023/04/05 10:46:46;;;;;;;9.27;8.30;;;21.00;80.00;;;;;;4859593;29;20201;-61
2023/04/05 10:49:22;;;;;;;9.82;8.45;;;21.50;79.00;;;;;;4853287;29;20211;-61
2023/04/05 10:51:51;;;;;;;11.38;9.15;;;21.10;76.30;;;;;;4855625;29;20259;-61
2023/04/05 10:54:21;;;;;;;12.05;9.55;;;20.80;77.80;;;;;;4854993;29;20275;-61
2023/04/05 10:56:50;;;;;;;13.73;9.45;;;20.70;72.40;;;;;;4855958;29;20225;-61
2023/04/05 10:59:20;;;;;;;12.07;8.38;;;20.50;75.70;;;;;;4853559;29;20233;-61
2023/04/05 11:01:48;;;;;;;12.88;8.93;;;20.80;73.30;;;;;;4855243;29;20237;-62
2023/04/05 11:04:17;;;;;;;11.07;8.00;;;20.90;73.60;;;;;;4858467;29;20208;-61
2023/04/05 11:06:47;;;;;;;10.98;8.77;;;20.90;81.60;;;;;;4856592;29;20228;-61
2023/04/05 11:09:17;;;;;;;11.90;9.18;;;20.90;75.90;;;;;;4854403;29;20222;-62
2023/04/05 11:11:48;;;;;;;14.07;9.50;;;20.60;72.20;;;;;;4849611;29;20220;-62
2023/04/05 11:14:21;;;;;;;11.67;9.23;;;20.10;73.70;;;;;;4856391;29;20227;-61
2023/04/05 11:16:54;;;;;;;11.07;9.63;;;20.00;73.10;;;;;;4854126;29;20220;-61
2023/04/05 11:19:50;;;;;;;12.33;9.07;;;19.90;73.50;;;;;;4857160;29;20731;-61
2023/04/05 11:22:27;;;;;;;13.90;9.53;;;20.40;78.60;;;;;;4853502;29;20227;-61
2023/04/05 11:24:57;;;;;;;11.03;9.10;;;20.20;73.70;;;;;;4849354;29;20352;-61
2023/04/05 11:27:27;;;;;;;14.40;9.27;;;20.70;78.30;;;;;;4851618;29;20215;-62
2023/04/05 11:29:57;;;;;;;8.97;7.90;;;20.80;78.20;;;;;;4859185;29;20275;-61
2023/04/05 11:32:39;;;;;;;11.67;8.60;;;20.70;74.90;;;;;;4858502;29;20215;-61
2023/04/05 11:35:13;;;;;;;12.67;9.10;;;20.00;73.80;;;;;;4859603;29;20263;-61
2023/04/05 11:38:08;;;;;;;11.80;8.27;;;19.30;74.80;;;;;;4855114;29;20675;-60
2023/04/05 11:40:39;;;;;;;10.43;8.80;;;19.70;79.60;;;;;;4854214;29;20901;-61
2023/04/05 11:43:11;;;;;;;10.53;8.70;;;19.50;76.10;;;;;;4857192;29;20199;-61
2023/04/05 11:45:40;;;;;;;11.07;8.97;;;19.90;79.00;;;;;;4854765;29;20226;-61
2023/04/05 11:48:11;;;;;;;12.83;8.40;;;19.50;73.10;;;;;;4855490;29;20243;-62
2023/04/05 11:50:41;;;;;;;10.03;8.43;;;19.40;76.20;;;;;;4837776;29;20224;-61
2023/04/05 11:53:11;;;;;;;13.53;8.97;;;19.20;74.90;;;;;;4852745;29;20700;-61
2023/04/05 11:55:40;;;;;;;13.03;8.83;;;19.00;72.70;;;;;;4844544;29;20273;-60
2023/04/05 11:58:18;;;;;;;10.87;8.43;;;18.50;73.60;;;;;;4853205;29;20224;-61
2023/04/05 12:00:47;;;;;;;14.50;8.90;;;18.60;77.20;;;;;;4853984;29;20235;-60
2023/04/05 12:03:16;;;;;;;15.53;8.97;;;18.80;76.30;;;;;;4856830;29;20229;-61
2023/04/05 12:05:46;;;;;;;10.93;8.60;;;19.10;75.70;;;;;;4851751;29;20287;-61
2023/04/05 12:08:15;;;;;;;16.07;9.80;;;19.20;79.70;;;;;;4855397;29;20223;-61
2023/04/05 12:10:45;;;;;;;12.07;9.17;;;18.90;76.70;;;;;;4853568;29;20750;-62
2023/04/05 12:13:13;;;;;;;13.10;8.80;;;18.90;80.70;;;;;;4852951;29;20212;-62
2023/04/05 12:15:43;;;;;;;11.27;8.77;;;19.50;81.10;;;;;;4855566;29;20683;-61
2023/04/05 12:18:15;;;;;;;14.10;9.77;;;19.60;78.90;;;;;;4857542;29;20261;-62
2023/04/05 12:20:44;;;;;;;13.93;9.20;;;19.40;78.50;;;;;;4856295;29;20284;-62
2023/04/05 12:23:12;;;;;;;11.47;8.87;;;19.70;80.70;;;;;;4858496;29;20236;-61
2023/04/05 12:25:41;;;;;;;11.37;9.13;;;20.10;80.00;;;;;;4855810;29;20261;-61
2023/04/05 12:28:10;;;;;;;14.23;9.43;;;20.10;76.90;;;;;;4858323;29;20648;-61
2023/04/05 12:30:50;;;;;;;14.30;9.20;;;20.10;76.70;;;;;;4856842;29;20220;-61
2023/04/05 12:33:28;;;;;;;12.20;8.70;;;20.00;76.30;;;;;;4856035;29;20259;-61
2023/04/05 12:35:56;;;;;;;11.87;9.13;;;20.10;78.60;;;;;;4855618;29;20242;-61
2023/04/05 12:38:27;;;;;;;13.00;9.60;;;20.00;77.60;;;;;;4846617;29;20227;-61
2023/04/05 12:41:00;;;;;;;13.20;10.00;;;19.50;77.60;;;;;;4860839;29;20713;-61
2023/04/05 12:43:38;;;;;;;14.70;10.10;;;18.70;73.50;;;;;;4861164;29;20259;-61
2023/04/05 12:46:10;;;;;;;15.90;9.90;;;17.90;73.60;;;;;;4856266;29;20220;-61
2023/04/05 12:48:39;;;;;;;15.17;9.37;;;17.40;75.20;;;;;;4858532;29;20587;-60